createdAt,value
2022-08-08T00:00:52.193Z,4.70
2022-08-08T00:03:20.348Z,4.47
2022-08-08T00:06:06.189Z,4.68
2022-08-08T00:08:51.389Z,5.82
2022-08-08T00:11:46.911Z,5.82
2022-08-08T00:15:00.304Z,6.00
2022-08-08T00:18:05.796Z,6.20
2022-08-08T00:21:01.360Z,5.15
2022-08-08T00:23:57.883Z,5.47
2022-08-08T00:26:31.568Z,4.40
2022-08-08T00:29:07.883Z,4.68
2022-08-08T00:32:20.780Z,5.00
2022-08-08T00:35:06.811Z,5.60
2022-08-08T00:37:48.344Z,5.47
2022-08-08T00:41:06.326Z,4.63
2022-08-08T00:43:59.097Z,4.97
2022-08-08T00:46:58.939Z,5.10
2022-08-08T00:49:58.547Z,5.20
2022-08-08T00:52:39.323Z,4.93
2022-08-08T00:55:16.899Z,5.32
2022-08-08T01:00:53.460Z,5.05
2022-08-08T01:04:02.482Z,4.57
2022-08-08T01:07:01.948Z,5.20
2022-08-08T01:10:23.710Z,5.15
2022-08-08T01:13:52.899Z,5.22
2022-08-08T01:16:33.862Z,5.00
2022-08-08T01:19:52.223Z,5.72
2022-08-08T01:22:40.209Z,4.60
2022-08-08T01:25:26.455Z,4.68
2022-08-08T01:28:31.710Z,5.40
2022-08-08T01:32:13.295Z,4.70
2022-08-08T01:34:34.588Z,4.70
2022-08-08T01:37:57.828Z,4.88
2022-08-08T01:40:28.164Z,5.70
2022-08-08T01:43:13.973Z,5.05
2022-08-08T01:49:01.093Z,4.97
2022-08-08T01:52:51.505Z,5.03
2022-08-08T01:55:25.696Z,5.00
2022-08-08T01:58:39.571Z,5.22
2022-08-08T02:01:28.136Z,4.97
2022-08-08T02:04:35.637Z,5.78
2022-08-08T02:07:19.873Z,5.00
2022-08-08T02:10:30.066Z,5.80
2022-08-08T02:13:54.809Z,5.78
2022-08-08T02:16:43.569Z,4.55
2022-08-08T02:19:57.938Z,4.35
2022-08-08T02:22:31.884Z,5.15
2022-08-08T02:25:32.825Z,5.82
2022-08-08T02:28:17.802Z,4.93
2022-08-08T02:31:07.147Z,5.00
2022-08-08T02:34:32.671Z,5.45
2022-08-08T02:37:52.996Z,5.20
2022-08-08T02:40:15.473Z,4.80
2022-08-08T02:44:37.052Z,4.97
2022-08-08T02:46:35.455Z,5.35
2022-08-08T02:49:48.300Z,4.95
2022-08-08T02:52:38.548Z,5.15
2022-08-08T02:56:00.026Z,5.07
2022-08-08T02:59:26.094Z,5.25
2022-08-08T03:02:38.953Z,5.27
2022-08-08T03:05:09.561Z,5.50
2022-08-08T03:08:06.173Z,6.30
2022-08-08T03:11:47.893Z,5.65
2022-08-08T03:15:59.618Z,5.97
2022-08-08T03:17:34.006Z,6.85
2022-08-08T03:20:08.135Z,5.38
2022-08-08T03:22:45.712Z,5.28
2022-08-08T03:25:18.441Z,7.87
2022-08-08T03:28:07.988Z,6.53
2022-08-08T03:30:35.668Z,5.47
2022-08-08T03:33:56.769Z,5.85
2022-08-08T03:36:09.486Z,5.40
2022-08-08T03:38:56.528Z,5.45
2022-08-08T03:42:26.747Z,5.20
2022-08-08T03:44:36.045Z,5.85
2022-08-08T03:47:19.251Z,5.20
2022-08-08T03:50:27.498Z,5.65
2022-08-08T03:53:14.822Z,6.77
2022-08-08T03:56:04.203Z,5.63
2022-08-08T03:58:37.637Z,4.45
2022-08-08T04:01:24.495Z,5.50
2022-08-08T04:03:58.075Z,6.57
2022-08-08T04:06:30.004Z,5.22
2022-08-08T04:09:11.094Z,5.68
2022-08-08T04:11:58.191Z,5.95
2022-08-08T04:14:34.894Z,5.28
2022-08-08T04:17:04.286Z,6.38
2022-08-08T04:19:36.587Z,6.80
2022-08-08T04:22:05.057Z,6.70
2022-08-08T04:24:32.483Z,7.60
2022-08-08T04:27:00.448Z,7.30
2022-08-08T04:29:37.082Z,7.28
2022-08-08T04:32:07.174Z,7.43
2022-08-08T04:34:42.942Z,8.02
2022-08-08T04:37:31.915Z,6.80
2022-08-08T04:40:05.243Z,7.40
2022-08-08T04:42:36.688Z,7.68
2022-08-08T04:45:06.053Z,8.27
2022-08-08T04:47:36.413Z,8.60
2022-08-08T04:50:23.657Z,8.20
2022-08-08T04:53:00.684Z,9.57
2022-08-08T04:55:47.762Z,8.93
2022-08-08T04:58:21.716Z,6.80
2022-08-08T05:00:49.966Z,7.78
2022-08-08T05:04:09.709Z,7.72
2022-08-08T05:06:12.644Z,7.15
2022-08-08T05:08:51.696Z,7.45
2022-08-08T05:11:22.694Z,7.00
2022-08-08T05:13:54.987Z,6.82
2022-08-08T05:16:51.872Z,7.13
2022-08-08T05:20:12.037Z,7.53
2022-08-08T05:22:02.265Z,8.18
2022-08-08T05:24:30.828Z,6.95
2022-08-08T05:26:58.776Z,7.65
2022-08-08T05:29:29.036Z,8.05
2022-08-08T05:32:03.245Z,6.55
2022-08-08T05:34:46.258Z,8.20
2022-08-08T05:37:19.805Z,8.25
2022-08-08T05:39:52.777Z,9.10
2022-08-08T05:42:26.308Z,8.35
2022-08-08T05:44:54.604Z,8.10
2022-08-08T05:47:29.993Z,9.15
2022-08-08T05:50:17.920Z,11.23
2022-08-08T05:52:45.236Z,10.43
2022-08-08T05:55:14.100Z,11.48
2022-08-08T05:58:04.037Z,9.82
2022-08-08T06:00:34.404Z,8.32
2022-08-08T06:03:17.346Z,7.32
2022-08-08T06:06:01.595Z,8.00
2022-08-08T06:08:54.984Z,6.78
2022-08-08T06:11:32.122Z,7.43
2022-08-08T06:14:06.134Z,8.63
2022-08-08T06:16:42.193Z,7.85
2022-08-08T06:19:16.582Z,8.55
2022-08-08T06:21:56.826Z,8.52
2022-08-08T06:24:31.052Z,9.52
2022-08-08T06:27:10.386Z,7.85
2022-08-08T06:30:01.108Z,7.28
2022-08-08T06:32:31.249Z,5.55
2022-08-08T06:36:04.575Z,6.32
2022-08-08T06:37:57.645Z,6.22
2022-08-08T06:40:29.377Z,5.32
2022-08-08T06:43:10.753Z,6.63
2022-08-08T06:45:39.316Z,6.13
2022-08-08T06:48:07.180Z,6.43
2022-08-08T06:50:38.701Z,6.10
2022-08-08T06:53:17.160Z,5.50
2022-08-08T06:56:00.718Z,5.03
2022-08-08T06:58:33.234Z,5.20
2022-08-08T07:01:24.222Z,6.32
2022-08-08T07:04:37.098Z,5.40
2022-08-08T07:06:59.562Z,6.05
2022-08-08T07:09:41.967Z,6.20
2022-08-08T07:12:54.716Z,5.45
2022-08-08T07:16:06.137Z,6.95
2022-08-08T07:19:16.511Z,6.47
2022-08-08T07:22:05.367Z,7.35
2022-08-08T07:25:04.044Z,5.82
2022-08-08T07:28:02.170Z,5.07
2022-08-08T07:30:33.498Z,7.03
2022-08-08T07:33:05.433Z,6.38
2022-08-08T07:35:42.722Z,5.75
2022-08-08T07:38:18.433Z,6.28
2022-08-08T07:43:23.188Z,7.72
2022-08-08T07:46:18.311Z,7.10
2022-08-08T07:48:50.451Z,6.72
2022-08-08T07:51:23.034Z,7.25
2022-08-08T07:54:15.770Z,5.70
2022-08-08T07:56:55.346Z,5.07
2022-08-08T07:59:26.798Z,6.95
2022-08-08T08:02:33.481Z,5.93
2022-08-08T08:05:00.952Z,4.88
2022-08-08T08:07:38.603Z,4.78
2022-08-08T08:10:12.648Z,4.60
2022-08-08T08:12:47.292Z,5.20
2022-08-08T08:15:26.149Z,5.63
2022-08-08T08:18:01.855Z,5.25
2022-08-08T08:20:30.891Z,5.47
2022-08-08T08:22:58.257Z,5.32
2022-08-08T08:25:43.824Z,5.32
2022-08-08T08:28:21.432Z,5.00
2022-08-08T08:30:53.193Z,4.60
2022-08-08T08:33:21.107Z,5.97
2022-08-08T08:36:18.630Z,6.20
2022-08-08T08:38:38.558Z,5.10
2022-08-08T08:41:20.241Z,5.25
2022-08-08T08:43:50.849Z,5.07
2022-08-08T08:46:25.730Z,4.97
2022-08-08T08:48:55.581Z,5.28
2022-08-08T08:51:26.837Z,4.47
2022-08-08T08:54:00.985Z,5.13
2022-08-08T08:56:29.471Z,5.05
2022-08-08T08:58:58.375Z,4.90
2022-08-08T09:01:33.476Z,4.68
2022-08-08T09:04:31.055Z,4.85
2022-08-08T09:07:02.296Z,5.95
2022-08-08T09:09:48.244Z,4.15
2022-08-08T09:12:25.529Z,4.43
2022-08-08T09:14:57.970Z,4.82
2022-08-08T09:17:40.853Z,3.55
2022-08-08T09:21:56.517Z,3.45
2022-08-08T09:22:59.135Z,4.25
2022-08-08T09:25:36.030Z,4.30
2022-08-08T09:28:35.507Z,3.75
2022-08-08T09:31:16.828Z,5.18
2022-08-08T09:34:15.885Z,4.70
2022-08-08T09:36:36.083Z,4.40
2022-08-08T09:39:15.497Z,5.00
2022-08-08T09:42:19.945Z,4.45
2022-08-08T09:45:15.426Z,3.33
2022-08-08T09:48:11.491Z,4.20
2022-08-08T09:50:34.771Z,3.60
2022-08-08T09:53:23.606Z,3.65
2022-08-08T09:56:04.738Z,4.28
2022-08-08T09:58:44.929Z,3.90
2022-08-08T10:01:59.674Z,3.88
2022-08-08T10:04:14.554Z,3.38
2022-08-08T10:06:45.144Z,3.95
2022-08-08T10:12:38.163Z,2.60
2022-08-08T10:15:20.012Z,3.17
2022-08-08T10:18:06.700Z,3.17
2022-08-08T10:20:58.230Z,3.42
2022-08-08T10:23:47.072Z,2.83
2022-08-08T10:26:58.586Z,3.30
2022-08-08T10:29:59.325Z,3.63
2022-08-08T10:32:34.081Z,3.10
2022-08-08T10:35:10.630Z,3.08
2022-08-08T10:37:59.385Z,2.72
2022-08-08T10:40:30.812Z,3.67
2022-08-08T10:43:03.096Z,3.10
2022-08-08T10:45:39.076Z,2.35
2022-08-08T10:48:11.672Z,2.35
2022-08-08T10:50:42.608Z,2.47
2022-08-08T10:53:16.260Z,2.53
2022-08-08T10:55:46.661Z,2.40
2022-08-08T10:58:15.638Z,2.33
2022-08-08T11:00:52.606Z,2.47
2022-08-08T11:04:00.810Z,2.72
2022-08-08T11:06:35.239Z,2.25
2022-08-08T11:09:15.440Z,2.05
2022-08-08T11:12:05.892Z,4.05
2022-08-08T11:15:01.432Z,2.40
2022-08-08T11:17:58.582Z,2.40
2022-08-08T11:20:27.513Z,2.50
2022-08-08T11:22:57.442Z,1.95
2022-08-08T11:25:52.170Z,1.88
2022-08-08T11:28:23.192Z,2.13
2022-08-08T11:30:57.893Z,2.17
2022-08-08T11:33:52.920Z,1.80
2022-08-08T11:36:15.855Z,1.75
2022-08-08T11:38:55.124Z,1.85
2022-08-08T11:41:28.193Z,2.08
2022-08-08T11:44:01.049Z,1.50
2022-08-08T11:46:31.771Z,1.20
2022-08-08T11:49:13.989Z,1.20
2022-08-08T11:51:50.518Z,2.00
2022-08-08T11:54:33.830Z,1.77
2022-08-08T11:57:14.610Z,1.10
2022-08-08T12:00:07.555Z,1.58
2022-08-08T12:02:51.054Z,1.55
2022-08-08T12:05:22.510Z,1.65
2022-08-08T12:07:56.161Z,1.67
2022-08-08T12:10:26.412Z,1.70
2022-08-08T12:13:09.644Z,1.45
2022-08-08T12:15:49.046Z,1.27
2022-08-08T12:18:27.520Z,1.33
2022-08-08T12:20:59.431Z,1.45
2022-08-08T12:23:43.199Z,1.63
2022-08-08T12:26:37.859Z,1.58
2022-08-08T12:29:36.195Z,1.40
2022-08-08T12:32:20.291Z,1.50
2022-08-08T12:35:13.227Z,1.48
2022-08-08T12:38:01.939Z,1.23
2022-08-08T12:40:56.891Z,1.75
2022-08-08T12:43:46.485Z,1.30
2022-08-08T12:46:19.303Z,1.45
2022-08-08T12:51:58.975Z,1.67
2022-08-08T12:54:37.312Z,1.85
2022-08-08T12:57:17.089Z,1.42
2022-08-08T13:00:05.852Z,1.20
2022-08-08T13:02:51.593Z,1.98
2022-08-08T13:05:27.017Z,1.60
2022-08-08T13:08:22.042Z,1.20
2022-08-08T13:10:57.206Z,1.17
2022-08-08T13:13:34.791Z,1.40
2022-08-08T13:16:25.478Z,1.50
2022-08-08T13:19:01.694Z,1.92
2022-08-08T13:21:52.979Z,1.42
2022-08-08T13:24:40.879Z,1.35
2022-08-08T13:27:35.900Z,1.35
2022-08-08T13:30:06.259Z,1.10
2022-08-08T13:32:36.055Z,1.30
2022-08-08T13:35:24.300Z,1.50
2022-08-08T13:38:06.310Z,1.60
2022-08-08T13:40:35.691Z,2.33
2022-08-08T13:43:04.111Z,2.70
2022-08-08T13:45:31.836Z,2.20
2022-08-08T13:48:00.992Z,3.03
2022-08-08T13:50:43.306Z,9.63
2022-08-08T13:53:34.049Z,4.13
2022-08-08T13:56:11.734Z,4.00
2022-08-08T13:58:57.559Z,3.40
2022-08-08T14:01:53.138Z,4.03
2022-08-08T14:04:22.953Z,3.75
2022-08-08T14:06:58.898Z,3.88
2022-08-08T14:10:05.072Z,3.85
2022-08-08T14:12:30.607Z,3.88
2022-08-08T14:15:00.085Z,3.78
2022-08-08T14:17:57.631Z,3.55
2022-08-08T14:20:56.330Z,3.50
2022-08-08T14:24:03.362Z,4.00
2022-08-08T14:26:10.940Z,3.83
2022-08-08T14:28:39.946Z,3.72
2022-08-08T14:31:09.482Z,3.85
2022-08-08T14:33:37.465Z,3.65
2022-08-08T14:36:05.957Z,3.83
2022-08-08T14:38:51.751Z,3.60
2022-08-08T14:41:53.431Z,2.88
2022-08-08T14:44:14.015Z,3.20
2022-08-08T14:47:00.394Z,3.58
2022-08-08T14:49:37.940Z,3.40
2022-08-08T14:52:53.598Z,4.50
2022-08-08T14:55:22.608Z,3.58
2022-08-08T14:58:11.387Z,3.28
2022-08-08T15:00:45.702Z,3.30
2022-08-08T15:03:17.247Z,3.92
2022-08-08T15:05:54.166Z,3.47
2022-08-08T15:08:35.225Z,3.65
2022-08-08T15:11:11.378Z,3.20
2022-08-08T15:14:01.009Z,4.22
2022-08-08T15:16:28.229Z,3.60
2022-08-08T15:18:55.807Z,4.93
2022-08-08T15:21:23.089Z,3.97
2022-08-08T15:23:57.952Z,3.30
2022-08-08T15:26:28.990Z,4.07
2022-08-08T15:28:57.343Z,3.88
2022-08-08T15:32:03.140Z,3.60
2022-08-08T15:34:18.828Z,3.55
2022-08-08T15:37:03.483Z,4.43
2022-08-08T15:39:38.505Z,4.15
2022-08-08T15:42:10.600Z,3.33
2022-08-08T15:44:42.225Z,3.25
2022-08-08T15:47:16.084Z,2.72
2022-08-08T15:49:49.020Z,3.63
2022-08-08T15:52:20.528Z,3.22
2022-08-08T15:54:52.924Z,3.38
2022-08-08T15:57:22.320Z,4.07
2022-08-08T16:00:06.746Z,3.95
2022-08-08T16:02:50.370Z,3.55
2022-08-08T16:05:19.782Z,3.67
2022-08-08T16:07:53.163Z,3.10
2022-08-08T16:13:20.819Z,3.05
2022-08-08T16:13:29.325Z,3.60
2022-08-08T16:16:03.356Z,3.25
2022-08-08T16:18:41.903Z,3.13
2022-08-08T16:21:26.008Z,3.08
2022-08-08T16:24:54.123Z,3.63
2022-08-08T16:30:08.722Z,3.05
2022-08-08T16:32:48.520Z,3.20
2022-08-08T16:35:18.892Z,3.05
2022-08-08T16:37:50.837Z,3.28
2022-08-08T16:55:02.808Z,2.72
2022-08-08T16:55:04.274Z,2.95
2022-08-08T16:58:15.645Z,2.95
2022-08-08T17:00:32.758Z,2.72
2022-08-08T17:03:01.898Z,2.78
2022-08-08T17:05:31.376Z,3.13
2022-08-08T17:08:34.005Z,3.53
2022-08-08T17:11:38.910Z,3.15
2022-08-08T17:14:56.930Z,3.03
2022-08-08T17:18:01.417Z,3.28
2022-08-08T17:20:14.161Z,3.45
2022-08-08T17:22:45.519Z,2.92
2022-08-08T17:25:51.947Z,3.78
2022-08-08T17:28:34.618Z,3.53
2022-08-08T17:31:39.405Z,2.83
2022-08-08T17:34:49.585Z,2.42
2022-08-08T17:37:00.229Z,3.30
2022-08-08T17:40:03.703Z,2.88
2022-08-08T17:42:19.151Z,3.42
2022-08-08T17:44:51.173Z,2.45
2022-08-08T17:47:24.315Z,3.03
2022-08-08T17:50:07.824Z,2.95
2022-08-08T17:56:26.182Z,2.83
2022-08-08T17:58:53.757Z,2.65
2022-08-08T18:01:43.916Z,3.03
2022-08-08T18:04:09.199Z,2.72
2022-08-08T18:06:44.746Z,2.78
2022-08-08T18:09:12.995Z,3.08
2022-08-08T18:11:43.118Z,3.72
2022-08-08T18:14:22.003Z,3.35
2022-08-08T18:16:52.626Z,3.42
2022-08-08T18:19:23.466Z,3.10
2022-08-08T18:22:01.633Z,2.90
2022-08-08T18:24:30.373Z,3.50
2022-08-08T18:26:59.543Z,3.58
2022-08-08T18:29:37.241Z,3.35
2022-08-08T18:32:07.256Z,3.25
2022-08-08T18:34:37.805Z,3.60
2022-08-08T18:37:08.579Z,2.90
2022-08-08T18:39:41.253Z,3.47
2022-08-08T18:42:14.390Z,3.60
2022-08-08T18:44:54.722Z,4.18
2022-08-08T18:47:27.798Z,3.33
2022-08-08T18:50:00.418Z,3.40
2022-08-08T18:52:36.831Z,3.38
2022-08-08T18:55:10.314Z,3.53
2022-08-08T18:57:44.610Z,3.83
2022-08-08T19:00:19.788Z,3.42
2022-08-08T19:02:57.003Z,3.88
2022-08-08T19:05:37.822Z,3.53
2022-08-08T19:08:25.571Z,3.38
2022-08-08T19:10:57.778Z,3.63
2022-08-08T19:13:53.780Z,4.60
2022-08-08T19:16:18.947Z,4.72
2022-08-08T19:19:00.357Z,4.10
2022-08-08T19:21:33.337Z,4.78
2022-08-08T19:24:05.182Z,4.50
2022-08-08T19:26:34.455Z,4.45
2022-08-08T19:29:02.242Z,4.75
2022-08-08T19:31:31.405Z,5.78
2022-08-08T19:34:30.174Z,4.07
2022-08-08T19:36:53.017Z,4.65
2022-08-08T19:39:22.968Z,4.60
2022-08-08T19:41:52.269Z,4.97
2022-08-08T19:44:26.826Z,4.68
2022-08-08T19:47:07.032Z,5.38
2022-08-08T19:49:37.886Z,5.32
2022-08-08T19:52:07.253Z,4.55
2022-08-08T19:54:37.966Z,5.47
2022-08-08T19:57:07.342Z,5.20
2022-08-08T19:59:36.182Z,5.55
2022-08-08T20:02:05.525Z,5.55
2022-08-08T20:04:33.585Z,4.68
2022-08-08T20:08:28.826Z,5.65
2022-08-08T20:09:55.755Z,4.57
2022-08-08T20:12:32.389Z,4.80
2022-08-08T20:15:09.776Z,4.80
2022-08-08T20:17:46.391Z,5.45
2022-08-08T20:20:19.758Z,5.15
2022-08-08T20:22:54.100Z,4.93
2022-08-08T20:25:24.698Z,5.90
2022-08-08T20:27:54.504Z,5.85
2022-08-08T20:30:52.900Z,5.32
2022-08-08T20:33:19.684Z,5.05
2022-08-08T20:35:58.397Z,4.75
2022-08-08T20:38:33.043Z,6.38
2022-08-08T20:41:05.207Z,5.20
2022-08-08T20:43:43.803Z,5.20
2022-08-08T20:46:15.920Z,5.07
2022-08-08T20:48:44.842Z,4.78
2022-08-08T20:51:12.853Z,4.18
2022-08-08T20:54:00.076Z,4.20
2022-08-08T20:56:35.579Z,4.30
2022-08-08T20:59:09.112Z,4.25
2022-08-08T21:02:05.449Z,4.07
2022-08-08T21:04:27.559Z,3.47
2022-08-08T21:06:56.219Z,4.72
2022-08-08T21:09:31.576Z,4.22
2022-08-08T21:12:02.769Z,3.70
2022-08-08T21:14:34.665Z,4.50
2022-08-08T21:17:06.084Z,4.82
2022-08-08T21:19:45.854Z,4.60
2022-08-08T21:22:15.668Z,4.63
2022-08-08T21:24:53.665Z,5.30
2022-08-08T21:28:05.153Z,4.07
2022-08-08T21:30:18.622Z,5.22
2022-08-08T21:32:52.534Z,4.22
2022-08-08T21:36:17.841Z,4.63
2022-08-08T21:38:16.003Z,4.32
2022-08-08T21:40:56.314Z,4.38
2022-08-08T21:43:33.570Z,5.10
2022-08-08T21:48:04.939Z,4.13
2022-08-08T21:48:57.300Z,4.32
2022-08-08T21:54:18.711Z,4.05
2022-08-08T21:54:51.608Z,4.53
2022-08-08T21:57:09.388Z,4.32
2022-08-08T21:59:44.197Z,4.00
2022-08-08T22:02:24.906Z,4.25
2022-08-08T22:04:55.944Z,4.10
2022-08-08T22:07:40.372Z,4.00
2022-08-08T22:10:18.278Z,3.92
2022-08-08T22:13:18.244Z,4.22
2022-08-08T22:15:59.678Z,4.53
2022-08-08T22:18:31.655Z,4.32
2022-08-08T22:21:14.057Z,3.85
2022-08-08T22:23:51.651Z,4.50
2022-08-08T22:26:29.598Z,4.43
2022-08-08T22:29:04.770Z,4.43
2022-08-08T22:31:43.553Z,4.45
2022-08-08T22:34:27.521Z,3.42
2022-08-08T22:36:55.054Z,3.95
2022-08-08T22:39:22.657Z,4.57
2022-08-08T22:42:10.411Z,4.22
2022-08-08T22:44:37.982Z,3.88
2022-08-08T22:47:16.707Z,3.80
2022-08-08T22:49:54.150Z,4.45
2022-08-08T22:52:33.624Z,4.53
2022-08-08T22:55:05.798Z,3.58
2022-08-08T22:57:44.161Z,3.63
2022-08-08T23:00:18.429Z,4.35
2022-08-08T23:02:50.342Z,3.20
2022-08-08T23:05:21.323Z,3.03
2022-08-08T23:07:57.762Z,3.05
2022-08-08T23:10:26.996Z,3.37
2022-08-08T23:12:56.440Z,3.28
2022-08-08T23:16:40.637Z,3.67
2022-08-08T23:18:12.529Z,3.45
2022-08-08T23:20:43.985Z,3.60
2022-08-08T23:23:12.574Z,3.53
2022-08-08T23:25:47.820Z,4.13
2022-08-08T23:28:18.895Z,3.75
2022-08-08T23:30:47.567Z,4.05
2022-08-08T23:33:19.128Z,3.50
2022-08-08T23:36:06.873Z,3.05
2022-08-08T23:38:34.700Z,3.85
2022-08-08T23:41:05.187Z,3.75
2022-08-08T23:43:45.547Z,4.63
2022-08-08T23:49:05.979Z,3.72
2022-08-08T23:49:14.564Z,3.17
2022-08-08T23:52:04.382Z,3.15
2022-08-08T23:54:43.229Z,3.20
2022-08-08T23:57:27.640Z,3.00
